Accueil
METAR-TAF:

METAR-TAF

Aéroports :

Aéroport de Caen - Carpiquet

Caen, France

latitude: 49-11N, longitude: 000-27W, altitude: 78 m

Observation

Le bulletin a été fait il y a 12 minutes, à 18:00 UTC
Vent 8 kt de ouest/sud-ouest
Température 21°C
Humidité 69%
Pression 1019 hPa
Visibilité 10 km ou plus
Ciel couvert à une hauteur de 2900 ft

METAR: LFRK 151800Z AUTO 25008KT 9999 OVC029 21/15 Q1019 NOSIG

Heure: 20:12 (18:12 UTC)

Prévision

Le bulletin a été fait il y a 4 heures et 12 minutes, à 14:00 UTC
Prévision valable du 15 à 15 UTC au 15 à 24 UTC
Vent 10 kt de ouest
Visibilité 10 km ou plus
Nuages fragmentés à une hauteur de 3000 ft
Evoluant progressivement
du 15 à 18 UTC au 15 à 20 UTC
Vent 3 kt de direction variable
Probabilité 30%
du 15 à 22 UTC au 15 à 24 UTC
Visibilité: 3000 m
brume

TAF: LFRK 151400Z 1515/1524 26010KT 9999 BKN030 BECMG 1518/1520 VRB03KT PROB30 1522/1524 3000 BR

Observations et prévisions météorologiques de plus de 4000 aéroports (messages METAR et TAF).

Les stations disponibles sont représentées par des disques jaunes et rouges sur la carte.

Passer la souris dessus pour voir le nom de la station.

Cliquer dessus pour voir les observations et prévisions météorologiques.

Pour changer de carte: cliquez sur les boutons verts avec une croix noire pour zoomer, sur le bouton vert avec un tiret pour effectuer un zoom arrière, ou sur les flèches vertes pour les cartes adjacentes.


METAR-TAF: